Jump to content


AMERICAN AIRLINES FLIGHT AA1824 FLOWN ON 05-28-2017 BY CAPTAIN JIM BOERMAN

Pilot StatsCaptain Jim Boerman (LDP136) • 4,616.9 total hours • 1,400 total flights [View Logbook]
FLIGHT DETAILS
StatusReceived and approved on 2017-05-28 at 09:05:57
Origin AirportPhiladelphia Intl (KPHL) • Philadelphia, Pennsylvania, United States (36 feet MSL)
Filed Flight PlanFLIGHT PLANNER OFFLINE
Destination AirportLogan Intl (KBOS) • Boston, Massachusetts, United States (19 feet MSL)
Alternate AirportManchester (KMHT) • Manchester, New Hampshire, United States (266 feet MSL)
AirlineAmerican Airlines
AircraftAirbus A319 (319 / A319)
FS Aircraft UsedFeelthere A319 CFM American Airlines _2013
Cruising AltitudeFL350
Distance Flown242 nautical miles
Passengers Onboard85 passengers (68.55% full)
DEPARTURE DETAILS
Time Out08:15:05
Taxi Data137,739 lbs total with 11,219 lbs of fuel onboard
Takeoff Data08:47:10 (32 minutes after leaving gate/ramp) • 135,536 lbs total • 6° pitch at 152 knots
Departure METARKPHL 281054Z 00000KT 6SM BR FEW005 BKN060 18/16 A2991 RMK AO2 SLP128 T01780161
ARRIVAL DETAILS
Landing Data09:38:11 • 130,499 lbs total • 2° pitch doing 127 knots at a rate of -89.97 feet/minute with 3,351 lbs of fuel onboard
Time In09:48:03 (10 minutes after landing)
Ramp Weight129,871 lbs total
Total Fuel Used7,868 lbs
Total Block Time01:31:07 (1.5 hours) while 42 minutes were spent on the ground
Arrival METARKBOS 281254Z 16005KT 10SM FEW017 BKN090 17/13 A2997 RMK AO2 SLP149 T01670133
MISCELLANEOUS DETAILS
LiveDISPATCH Version4.8.3.1
FS Version
FSUIPC Version4.93
OS VersionWindows 7 32-bit
Screen Resolution1920 x 1080
Pilot's CommentsNo Comments Reported
FLIGHT MAP